Time;durP1;ratioP1;P1;durP2;ratioP2;P2;SDS_P1;SDS_P2;PMS_P1;PMS_P2;Temp;Humidity;BMP_temperature;BMP_pressure;BME280_temperature;BME280_humidity;BME280_pressure;Samples;Min_cycle;Max_cycle;Signal;HPM_P1;HPM_P2
2022/03/15 00:00:57;;;;;;;21.70;15.83;;;;;;;4.01;48.77;96217.50;5055068;28;20186;-75
2022/03/15 00:03:22;;;;;;;21.00;15.77;;;;;;;4.10;48.17;96220.22;5078012;28;20174;-75
2022/03/15 00:05:49;;;;;;;30.63;18.83;;;;;;;3.48;49.36;96231.66;5081580;28;20268;-75
2022/03/15 00:08:17;;;;;;;28.50;19.67;;;;;;;3.79;48.80;96231.19;5064045;28;20186;-76
2022/03/15 00:10:43;;;;;;;22.27;17.80;;;;;;;4.06;48.08;96228.31;5074877;28;20456;-75
2022/03/15 00:13:09;;;;;;;26.40;18.83;;;;;;;4.22;47.17;96230.59;5085123;28;20440;-75
2022/03/15 00:15:36;;;;;;;27.90;19.63;;;;;;;4.08;47.89;96229.06;5074610;28;20226;-75
2022/03/15 00:18:02;;;;;;;22.60;18.90;;;;;;;4.24;47.45;96234.72;5072478;28;20501;-75
2022/03/15 00:20:28;;;;;;;31.33;19.20;;;;;;;3.94;48.41;96224.88;5072573;28;20412;-75
2022/03/15 00:22:57;;;;;;;28.00;18.80;;;;;;;3.96;49.19;96220.41;5064594;28;20457;-75
2022/03/15 00:25:22;;;;;;;22.37;18.47;;;;;;;3.89;48.80;96214.88;5071145;28;20170;-75
2022/03/15 00:27:52;;;;;;;27.53;18.50;;;;;;;3.90;48.93;96219.09;5059653;28;20429;-75
2022/03/15 00:30:22;;;;;;;28.73;20.40;;;;;;;3.84;49.19;96221.34;5071989;28;20206;-75
2022/03/15 00:32:48;;;;;;;25.77;19.83;;;;;;;3.76;49.91;96216.72;5078970;28;20446;-76
2022/03/15 00:35:17;;;;;;;28.47;20.27;;;;;;;4.15;48.49;96209.50;5078031;28;20419;-75
2022/03/15 00:37:46;;;;;;;34.30;22.43;;;;;;;3.92;49.46;96213.81;5078667;28;20429;-75
2022/03/15 00:40:13;;;;;;;30.07;23.77;;;;;;;4.30;48.91;96207.53;5081762;28;20429;-75
2022/03/15 00:42:39;;;;;;;30.53;22.90;;;;;;;4.53;48.06;96204.94;5078012;28;20545;-75
2022/03/15 00:45:06;;;;;;;31.27;22.73;;;;;;;4.05;49.21;96208.56;5072520;28;20421;-75
2022/03/15 00:47:31;;;;;;;35.30;23.53;;;;;;;3.89;49.86;96214.88;5076654;28;20431;-75
2022/03/15 00:49:57;;;;;;;35.27;24.30;;;;;;;4.05;49.80;96206.78;5074449;28;21266;-75
2022/03/15 00:52:23;;;;;;;31.37;23.07;;;;;;;3.89;49.26;96208.88;5085686;28;20170;-75
2022/03/15 00:54:48;;;;;;;37.60;25.07;;;;;;;3.68;50.08;96201.75;5082156;28;20235;-75
2022/03/15 00:57:14;;;;;;;39.53;25.60;;;;;;;3.74;50.12;96191.88;5072484;28;20244;-76
2022/03/15 00:59:40;;;;;;;32.37;23.07;;;;;;;4.05;49.55;96193.84;5080474;28;20245;-75
2022/03/15 01:02:05;;;;;;;33.67;23.77;;;;;;;3.81;50.18;96190.47;5078633;28;20185;-75
2022/03/15 01:04:31;;;;;;;38.70;22.57;;;;;;;4.11;49.69;96190.78;5082834;28;20179;-75
2022/03/15 01:06:56;;;;;;;32.53;23.10;;;;;;;4.28;49.01;96184.31;5088171;28;20189;-74
2022/03/15 01:09:22;;;;;;;31.37;23.33;;;;;;;4.17;49.47;96183.50;5082837;28;20194;-75
2022/03/15 01:11:47;;;;;;;29.50;22.13;;;;;;;3.96;49.47;96178.16;5080549;28;20643;-75
2022/03/15 01:14:13;;;;;;;34.63;22.67;;;;;;;3.77;49.74;96173.53;5058557;28;20605;-75
2022/03/15 01:16:40;;;;;;;28.57;22.07;;;;;;;3.90;49.87;96184.63;5054008;28;20233;-76
2022/03/15 01:19:07;;;;;;;32.20;22.15;;;;;;;3.46;50.94;96181.78;5076605;28;20456;-74
2022/03/15 01:21:35;;;;;;;35.53;26.30;;;;;;;3.42;51.24;96190.72;5086829;28;20166;-74
2022/03/15 01:24:01;;;;;;;32.77;21.70;;;;;;;3.40;50.81;96184.00;5069599;28;20433;-75
2022/03/15 01:26:26;;;;;;;35.17;24.67;;;;;;;3.42;51.24;96179.56;5070452;28;20420;-75
2022/03/15 01:28:52;;;;;;;32.47;24.97;;;;;;;3.32;51.20;96187.16;5076418;28;20182;-75
2022/03/15 01:31:17;;;;;;;34.27;24.03;;;;;;;3.39;51.55;96190.13;5070823;28;20201;-75
2022/03/15 01:33:43;;;;;;;27.07;22.03;;;;;;;3.43;51.08;96194.13;5080404;28;20190;-75
2022/03/15 01:36:09;;;;;;;30.03;23.70;;;;;;;3.19;51.35;96196.72;5083941;28;20587;-75
2022/03/15 01:38:35;;;;;;;30.53;19.90;;;;;;;3.52;51.47;96191.69;5087891;28;20182;-75
2022/03/15 01:41:01;;;;;;;28.07;23.40;;;;;;;3.08;52.30;96189.75;5081213;28;20439;-75
2022/03/15 01:43:26;;;;;;;27.27;22.13;;;;;;;3.01;52.49;96191.94;5072045;28;20428;-75
2022/03/15 01:45:53;;;;;;;31.93;21.60;;;;;;;2.78;53.15;96198.72;5082355;28;20178;-75
2022/03/15 01:48:20;;;;;;;36.28;24.63;;;;;;;3.14;52.16;96202.22;5056449;28;20285;-76
2022/03/15 01:50:46;;;;;;;32.50;23.10;;;;;;;3.08;51.63;96203.50;5082912;28;20228;-75
2022/03/15 01:53:14;;;;;;;31.67;23.57;;;;;;;2.86;52.43;96208.53;5076491;28;20444;-76
2022/03/15 01:55:39;;;;;;;30.55;21.83;;;;;;;2.97;52.12;96205.19;5068658;28;20428;-75
2022/03/15 01:58:05;;;;;;;26.37;19.43;;;;;;;2.87;51.93;96216.19;5080731;28;20191;-76
2022/03/15 02:00:31;;;;;;;35.43;19.83;;;;;;;3.09;52.10;96217.25;5065988;28;20178;-75
2022/03/15 02:02:57;;;;;;;23.67;19.08;;;;;;;3.01;52.12;96219.56;5084837;28;20633;-75
2022/03/15 02:05:23;;;;;;;32.47;21.30;;;;;;;3.20;51.05;96206.13;5083005;28;20182;-76
2022/03/15 02:07:48;;;;;;;27.10;18.90;;;;;;;3.79;49.68;96203.53;5086931;28;20212;-75
2022/03/15 02:10:14;;;;;;;32.63;21.00;;;;;;;3.13;51.85;96195.41;5083340;28;20188;-76
2022/03/15 02:12:39;;;;;;;34.00;20.20;;;;;;;2.58;53.04;96204.44;5073069;28;20285;-75
2022/03/15 02:15:06;;;;;;;29.20;19.37;;;;;;;2.91;51.87;96196.94;5083444;28;20230;-75
2022/03/15 02:17:33;;;;;;;29.58;21.50;;;;;;;2.83;52.05;96199.22;5073189;28;20187;-75
2022/03/15 02:19:58;;;;;;;28.30;21.13;;;;;;;2.87;52.15;96192.91;5067494;28;20187;-75
2022/03/15 02:22:25;;;;;;;21.67;16.87;;;;;;;3.43;51.13;96194.13;5081648;28;20182;-75
2022/03/15 02:24:51;;;;;;;31.88;19.27;;;;;;;3.27;51.26;96184.88;5083840;28;20177;-76
2022/03/15 02:27:16;;;;;;;33.43;22.53;;;;;;;3.26;51.41;96180.66;5087921;28;20174;-75
2022/03/15 02:29:42;;;;;;;32.40;20.70;;;;;;;3.45;50.70;96168.97;5083906;28;20948;-75
2022/03/15 02:32:08;;;;;;;35.53;21.37;;;;;;;3.21;51.29;96163.81;5055682;28;20205;-75
2022/03/15 02:34:34;;;;;;;33.40;22.13;;;;;;;3.23;52.08;96164.53;5059799;28;20175;-75
2022/03/15 02:37:00;;;;;;;36.63;22.50;;;;;;;3.52;50.94;96159.81;5077706;28;20173;-75
2022/03/15 02:39:25;;;;;;;28.92;19.60;;;;;;;3.14;51.52;96155.66;5083811;28;20260;-75
2022/03/15 02:41:51;;;;;;;25.47;17.10;;;;;;;3.15;51.35;96161.66;5082369;28;20188;-75
2022/03/15 02:44:16;;;;;;;27.23;17.90;;;;;;;3.05;51.61;96169.25;5072245;28;20257;-75
2022/03/15 02:46:42;;;;;;;28.07;22.27;;;;;;;3.29;51.03;96172.66;5086614;28;20231;-75
2022/03/15 02:49:09;;;;;;;25.93;19.73;;;;;;;2.83;52.93;96178.56;5070167;28;20202;-75
2022/03/15 02:51:35;;;;;;;32.78;22.05;;;;;;;2.78;53.11;96175.47;5065930;28;20195;-74
2022/03/15 02:54:08;;;;;;;32.67;23.50;;;;;;;2.82;53.50;96181.25;5067341;28;20181;-75
2022/03/15 02:56:36;;;;;;;28.42;20.23;;;;;;;3.25;51.41;96186.75;5093978;28;20221;-75
2022/03/15 02:59:03;;;;;;;31.63;21.20;;;;;;;2.91;52.96;96189.16;5079262;28;20179;-75
2022/03/15 03:01:28;;;;;;;26.17;19.85;;;;;;;2.68;53.56;96180.44;5060861;28;20250;-75
2022/03/15 03:03:54;;;;;;;28.80;19.80;;;;;;;3.22;51.43;96174.03;5077299;28;20182;-75
2022/03/15 03:06:19;;;;;;;29.97;22.30;;;;;;;2.87;52.42;96167.06;5086580;28;20173;-75
2022/03/15 03:08:45;;;;;;;32.67;21.27;;;;;;;3.25;51.92;96160.91;5085453;28;20166;-75
2022/03/15 03:11:10;;;;;;;28.70;21.30;;;;;;;2.99;52.77;96162.75;5062029;28;20186;-75
2022/03/15 03:13:37;;;;;;;27.60;20.03;;;;;;;2.89;52.39;96157.44;5074695;28;20646;-75
2022/03/15 03:16:05;;;;;;;28.13;20.20;;;;;;;2.97;52.63;96167.22;5077959;28;20287;-75
2022/03/15 03:18:34;;;;;;;29.20;19.10;;;;;;;2.83;52.62;96173.38;5065702;28;20439;-75
2022/03/15 03:21:04;;;;;;;27.58;19.33;;;;;;;2.78;53.01;96164.31;5065216;28;20431;-75
2022/03/15 03:23:33;;;;;;;24.07;18.57;;;;;;;3.14;52.08;96158.25;5077872;28;20177;-75
2022/03/15 03:25:59;;;;;;;24.13;18.07;;;;;;;2.56;52.88;96159.81;5085022;28;20470;-75
2022/03/15 03:28:27;;;;;;;27.20;17.23;;;;;;;2.74;52.59;96148.19;5086220;28;20438;-75
2022/03/15 03:30:53;;;;;;;26.05;17.13;;;;;;;2.58;52.83;96155.34;5059178;28;20490;-75
2022/03/15 03:33:19;;;;;;;28.03;17.27;;;;;;;3.05;51.63;96149.38;5076280;28;20186;-75
2022/03/15 03:35:45;;;;;;;22.00;17.42;;;;;;;2.97;51.65;96143.13;5080458;28;20174;-75
2022/03/15 03:38:12;;;;;;;27.40;18.70;;;;;;;2.93;51.31;96148.50;5056184;28;20248;-75
2022/03/15 03:40:38;;;;;;;22.70;17.77;;;;;;;2.43;52.68;96150.34;5082966;28;20503;-76
2022/03/15 03:43:04;;;;;;;28.27;17.65;;;;;;;2.48;53.42;96152.59;5065749;28;20174;-75
2022/03/15 03:45:30;;;;;;;31.00;19.65;;;;;;;2.49;53.19;96162.00;5065509;28;20181;-75
2022/03/15 03:47:55;;;;;;;23.53;18.60;;;;;;;2.57;53.30;96156.28;5047656;28;20183;-75
2022/03/15 03:50:21;;;;;;;31.17;20.00;;;;;;;2.80;53.00;96159.84;5061394;28;20448;-75
2022/03/15 03:52:47;;;;;;;40.13;23.00;;;;;;;2.69;52.48;96169.19;5085350;28;20241;-75
2022/03/15 03:55:12;;;;;;;29.77;21.73;;;;;;;2.63;52.73;96179.13;5076427;28;20182;-75
2022/03/15 03:57:38;;;;;;;34.50;23.03;;;;;;;2.51;53.04;96179.03;5073424;28;20200;-75
2022/03/15 04:00:07;;;;;;;35.30;21.13;;;;;;;2.60;53.20;96194.81;5087123;28;20205;-75
2022/03/15 04:02:32;;;;;;;29.73;21.50;;;;;;;2.44;53.26;96193.31;5075295;28;20229;-75
2022/03/15 04:04:58;;;;;;;26.03;18.50;;;;;;;2.38;53.15;96198.09;5087319;28;20706;-75
2022/03/15 04:07:24;;;;;;;32.00;21.60;;;;;;;2.04;53.68;96202.94;5086616;28;20180;-75
2022/03/15 04:09:49;;;;;;;25.63;20.60;;;;;;;1.99;54.02;96208.41;5058908;28;20181;-75
2022/03/15 04:12:15;;;;;;;37.07;26.23;;;;;;;2.37;53.21;96206.75;5074140;28;20190;-75
2022/03/15 04:14:41;;;;;;;44.27;28.67;;;;;;;2.37;53.17;96206.75;5048164;28;20183;-74
2022/03/15 04:17:09;;;;;;;42.73;29.43;;;;;;;2.41;52.79;96203.03;5075951;28;20508;-75
2022/03/15 04:19:35;;;;;;;47.38;30.70;;;;;;;2.46;52.53;96206.94;5087481;28;20607;-75
2022/03/15 04:22:00;;;;;;;42.88;29.48;;;;;;;2.56;52.57;96209.72;5076215;28;20177;-75
2022/03/15 04:24:26;;;;;;;44.57;30.67;;;;;;;2.31;52.83;96213.16;5073537;28;20205;-75
2022/03/15 04:26:51;;;;;;;38.83;26.20;;;;;;;2.04;53.84;96216.66;5055616;28;20178;-75
2022/03/15 04:29:17;;;;;;;40.60;28.93;;;;;;;2.25;53.38;96223.91;5070445;28;20250;-75
2022/03/15 04:31:42;;;;;;;37.83;28.53;;;;;;;2.32;53.25;96225.16;5079176;28;20743;-76
2022/03/15 04:34:08;;;;;;;36.03;24.90;;;;;;;2.21;53.16;96222.47;5073753;28;20170;-75
2022/03/15 04:36:35;;;;;;;39.57;26.10;;;;;;;2.35;52.97;96222.34;5076027;28;20179;-75
2022/03/15 04:39:01;;;;;;;40.95;25.83;;;;;;;2.26;53.39;96221.22;5064176;28;20186;-75
2022/03/15 04:41:27;;;;;;;33.90;24.80;;;;;;;2.35;53.01;96212.00;5075789;28;20181;-75
2022/03/15 04:43:52;;;;;;;35.40;26.80;;;;;;;2.65;52.34;96216.03;5078910;28;20178;-75
2022/03/15 04:46:18;;;;;;;38.77;24.77;;;;;;;2.40;52.93;96212.53;5082912;28;20189;-75
2022/03/15 04:48:43;;;;;;;41.20;26.97;;;;;;;2.48;52.80;96214.59;5062916;28;20272;-75
2022/03/15 04:51:09;;;;;;;39.33;24.30;;;;;;;2.42;53.12;96215.84;5075800;28;20244;-75
2022/03/15 04:53:35;;;;;;;34.63;25.90;;;;;;;2.52;52.91;96216.03;5047767;28;20614;-75
2022/03/15 04:56:01;;;;;;;34.50;24.63;;;;;;;2.52;52.76;96216.88;5080498;28;20412;-75
2022/03/15 04:58:26;;;;;;;34.80;25.70;;;;;;;2.55;53.06;96210.66;5068928;28;20432;-75
2022/03/15 05:00:52;;;;;;;37.67;25.63;;;;;;;2.67;52.69;96219.31;5067695;28;20197;-76
2022/03/15 05:03:17;;;;;;;34.20;25.00;;;;;;;2.70;52.77;96214.78;5081673;28;20213;-76
2022/03/15 05:05:44;;;;;;;32.57;25.37;;;;;;;2.90;52.09;96215.13;5078304;28;20178;-76
2022/03/15 05:08:10;;;;;;;36.63;26.43;;;;;;;3.24;50.59;96223.91;5083507;28;20190;-76
2022/03/15 05:13:20;;;;;;;37.92;25.83;;;;;;;3.17;51.43;96221.88;5066111;28;20191;-75
2022/03/15 05:15:47;;;;;;;37.43;26.70;;;;;;;2.99;51.93;96219.66;5075440;28;20247;-75
2022/03/15 05:18:12;;;;;;;44.38;27.10;;;;;;;3.06;51.70;96231.22;5083395;28;20436;-75
2022/03/15 05:20:38;;;;;;;36.23;27.63;;;;;;;2.74;52.58;96228.31;5049058;28;20166;-76
2022/03/15 05:23:03;;;;;;;38.50;26.77;;;;;;;2.72;52.40;96227.59;5080703;28;20204;-75
2022/03/15 05:25:29;;;;;;;42.77;28.73;;;;;;;2.70;53.26;96229.47;5075755;28;20234;-75
2022/03/15 05:27:54;;;;;;;38.30;27.93;;;;;;;3.03;52.13;96223.66;5085278;28;20166;-75
2022/03/15 05:30:20;;;;;;;41.13;27.43;;;;;;;3.01;51.42;96227.31;5070190;28;20183;-75
2022/03/15 05:32:45;;;;;;;38.23;26.80;;;;;;;3.04;51.25;96227.09;5080899;28;20269;-75
2022/03/15 05:35:11;;;;;;;37.00;25.87;;;;;;;3.02;51.75;96223.81;5062372;28;20204;-75
2022/03/15 05:37:36;;;;;;;33.43;27.57;;;;;;;3.18;51.67;96218.34;5074605;28;20179;-75
2022/03/15 05:40:03;;;;;;;38.00;28.67;;;;;;;3.14;51.37;96222.91;5069880;28;20188;-75
2022/03/15 05:42:28;;;;;;;44.40;28.37;;;;;;;3.24;51.92;96223.91;5066684;28;20178;-75
2022/03/15 05:44:54;;;;;;;38.73;27.83;;;;;;;3.47;51.63;96221.44;5073228;28;20423;-75
2022/03/15 05:47:19;;;;;;;35.80;28.67;;;;;;;3.62;50.64;96216.91;5065771;28;20174;-75
2022/03/15 05:49:45;;;;;;;35.40;26.97;;;;;;;3.63;50.47;96219.38;5073290;28;20205;-75
2022/03/15 05:52:10;;;;;;;36.33;26.67;;;;;;;3.93;50.15;96228.44;5080372;28;20209;-75
2022/03/15 05:54:36;;;;;;;36.63;27.53;;;;;;;4.13;49.50;96218.34;5073018;28;20249;-75
2022/03/15 05:57:02;;;;;;;38.43;27.60;;;;;;;4.00;49.62;96214.06;5068875;28;20573;-76
2022/03/15 05:59:28;;;;;;;36.37;23.40;;;;;;;4.18;49.58;96219.66;5083740;28;20208;-76
2022/03/15 06:01:54;;;;;;;37.77;25.10;;;;;;;4.29;48.99;96227.44;5071534;28;20417;-76
2022/03/15 06:04:24;;;;;;;30.73;24.50;;;;;;;4.45;48.52;96219.31;5070460;28;20182;-77
2022/03/15 06:06:50;;;;;;;43.73;30.27;;;;;;;4.49;48.26;96223.31;5083589;28;20477;-76
2022/03/15 06:09:15;;;;;;;40.13;28.00;;;;;;;4.57;48.10;96230.53;5075574;28;20538;-76
2022/03/15 06:11:41;;;;;;;40.63;27.60;;;;;;;4.74;47.48;96231.78;5083036;28;20464;-76
2022/03/15 06:14:07;;;;;;;40.27;27.77;;;;;;;4.86;47.54;96237.81;5078341;28;20208;-76
2022/03/15 06:16:33;;;;;;;35.13;25.97;;;;;;;5.05;47.11;96237.22;5086404;28;20236;-75
2022/03/15 06:18:58;;;;;;;37.37;30.23;;;;;;;5.16;46.58;96236.34;5071513;28;20433;-76
2022/03/15 06:21:24;;;;;;;39.73;29.50;;;;;;;5.56;45.44;96227.97;5083707;28;20173;-76
2022/03/15 06:23:49;;;;;;;37.70;30.20;;;;;;;5.34;45.68;96226.31;5079188;28;20202;-76
2022/03/15 06:26:18;;;;;;;32.53;25.80;;;;;;;5.48;45.47;96236.38;5085668;28;20201;-75
2022/03/15 06:28:43;;;;;;;40.63;28.53;;;;;;;5.47;45.08;96232.16;5084949;28;20197;-76
2022/03/15 06:31:09;;;;;;;35.93;27.30;;;;;;;5.53;45.19;96230.84;5065685;28;20464;-76
2022/03/15 06:33:35;;;;;;;37.67;30.47;;;;;;;5.68;44.37;96227.81;5079190;28;20181;-76
2022/03/15 06:36:01;;;;;;;39.60;27.17;;;;;;;6.00;43.41;96224.41;5054783;28;20447;-76
2022/03/15 06:38:27;;;;;;;36.70;24.70;;;;;;;5.34;44.40;96229.72;5072377;28;20444;-76
2022/03/15 06:40:53;;;;;;;35.73;25.20;;;;;;;5.50;44.34;96237.09;5087330;28;20412;-76
2022/03/15 06:43:19;;;;;;;35.93;26.13;;;;;;;5.41;44.22;96240.44;5063040;28;20189;-76
2022/03/15 06:45:46;;;;;;;39.47;26.30;;;;;;;5.88;43.50;96235.78;5072900;28;20185;-76
2022/03/15 06:48:12;;;;;;;31.73;23.73;;;;;;;5.64;43.67;96242.00;5074354;28;20437;-76
2022/03/15 06:50:37;;;;;;;31.97;22.50;;;;;;;5.78;43.44;96232.28;5066312;28;20998;-76
2022/03/15 06:53:06;;;;;;;28.77;23.97;;;;;;;5.75;43.15;96232.50;5075034;28;20185;-76
2022/03/15 06:55:32;;;;;;;35.50;20.57;;;;;;;5.98;42.55;96226.31;5072343;28;20204;-76
2022/03/15 06:57:59;;;;;;;32.60;23.40;;;;;;;5.75;43.32;96232.50;5084097;28;20466;-76
2022/03/15 07:00:24;;;;;;;32.67;21.87;;;;;;;5.74;43.45;96234.28;5072062;28;20868;-76
2022/03/15 07:02:50;;;;;;;30.57;22.20;;;;;;;6.28;42.26;96234.28;5085213;28;20439;-76
2022/03/15 07:05:16;;;;;;;27.73;19.67;;;;;;;6.44;42.22;96235.47;5070590;28;20274;-76
2022/03/15 07:07:41;;;;;;;28.37;21.33;;;;;;;6.55;41.48;96237.16;5072799;28;20182;-76
2022/03/15 07:10:09;;;;;;;25.03;20.60;;;;;;;6.59;41.39;96232.53;5071279;28;20202;-75
2022/03/15 07:12:35;;;;;;;29.10;20.23;;;;;;;6.87;41.05;96237.97;5049051;28;20162;-75
2022/03/15 07:15:03;;;;;;;26.37;21.70;;;;;;;6.60;41.57;96245.41;5060246;28;20460;-76
2022/03/15 07:17:30;;;;;;;28.00;21.80;;;;;;;6.61;41.63;96236.66;5064087;28;20440;-76
2022/03/15 07:19:57;;;;;;;36.97;23.70;;;;;;;6.32;40.96;96239.09;5059240;28;20452;-76
2022/03/15 07:22:24;;;;;;;26.50;21.23;;;;;;;6.64;41.06;96233.78;5061719;28;20425;-75
2022/03/15 07:24:51;;;;;;;37.93;20.73;;;;;;;6.61;40.82;96235.81;5061625;28;20420;-77
2022/03/15 07:27:17;;;;;;;34.73;19.57;;;;;;;6.92;40.36;96234.03;5061477;28;20420;-76
2022/03/15 07:29:42;;;;;;;27.87;19.53;;;;;;;7.18;39.67;96229.16;5061423;28;20444;-76
2022/03/15 07:32:08;;;;;;;41.77;21.17;;;;;;;6.75;40.63;96226.84;5064642;28;20461;-76
2022/03/15 07:34:33;;;;;;;30.57;20.00;;;;;;;6.62;40.26;96238.31;5048530;28;20182;-76
2022/03/15 07:36:58;;;;;;;25.80;18.37;;;;;;;7.16;38.99;96236.28;5068501;28;20249;-76
2022/03/15 07:39:24;;;;;;;32.70;20.93;;;;;;;7.09;39.96;96237.78;5066855;28;20183;-76
2022/03/15 07:41:50;;;;;;;36.57;22.30;;;;;;;7.34;38.75;96233.03;5048810;28;20254;-76
2022/03/15 07:44:15;;;;;;;24.97;20.40;;;;;;;7.53;38.76;96233.09;5050039;28;20170;-78
2022/03/15 07:46:48;;;;;;;22.10;18.13;;;;;;;7.43;38.70;96233.03;5066598;28;20478;-77
2022/03/15 07:49:17;;;;;;;20.97;16.10;;;;;;;7.44;38.60;96226.06;5050281;28;20244;-76
2022/03/15 07:51:43;;;;;;;27.07;16.93;;;;;;;7.77;38.49;96231.84;5075102;28;20555;-76
2022/03/15 07:54:09;;;;;;;29.80;18.07;;;;;;;8.08;37.94;96232.53;5076984;28;20471;-76
2022/03/15 07:56:34;;;;;;;22.50;19.97;;;;;;;7.90;38.54;96234.19;5078843;28;20412;-76
2022/03/15 07:59:00;;;;;;;28.60;21.87;;;;;;;7.84;38.30;96229.53;5075374;28;20217;-77
2022/03/15 08:01:25;;;;;;;30.80;22.10;;;;;;;8.52;37.42;96235.47;5078999;28;20182;-76
2022/03/15 08:03:53;;;;;;;25.53;22.57;;;;;;;8.60;37.59;96230.38;5083820;28;20236;-77
2022/03/15 08:06:18;;;;;;;26.80;21.17;;;;;;;8.44;37.91;96226.72;5060977;28;20186;-77
2022/03/15 08:08:44;;;;;;;28.70;22.23;;;;;;;8.05;38.76;96218.94;5087614;28;20519;-77
2022/03/15 08:11:09;;;;;;;30.93;22.53;;;;;;;8.59;37.05;96212.25;5075195;28;20197;-77
2022/03/15 08:13:35;;;;;;;24.47;21.23;;;;;;;9.19;36.86;96215.25;5080981;28;20188;-77
2022/03/15 08:16:04;;;;;;;29.43;22.23;;;;;;;9.58;35.74;96212.41;5072863;28;20225;-77
2022/03/15 08:18:33;;;;;;;33.63;23.50;;;;;;;9.62;35.55;96206.88;5064328;28;20186;-78
2022/03/15 08:20:59;;;;;;;28.33;23.00;;;;;;;9.61;35.79;96213.06;5065382;28;21331;-77
2022/03/15 08:23:28;;;;;;;29.20;22.30;;;;;;;10.10;35.43;96210.88;5071576;28;20445;-78
2022/03/15 08:25:55;;;;;;;29.13;20.57;;;;;;;9.95;34.53;96207.97;5077995;28;20416;-76
2022/03/15 08:28:23;;;;;;;28.77;22.53;;;;;;;9.49;35.26;96207.25;5081842;28;20579;-76
2022/03/15 08:30:48;;;;;;;33.00;21.80;;;;;;;9.89;34.97;96203.34;5059547;28;21065;-78
2022/03/15 08:33:14;;;;;;;33.33;24.57;;;;;;;10.67;34.19;96208.66;5080576;28;20479;-77
2022/03/15 08:35:39;;;;;;;32.47;23.70;;;;;;;10.65;34.45;96199.31;5070276;28;20194;-76
2022/03/15 08:38:05;;;;;;;29.00;23.13;;;;;;;10.80;33.56;96207.41;5077977;28;20243;-77
2022/03/15 08:40:30;;;;;;;30.20;22.90;;;;;;;10.53;34.18;96201.38;5078536;28;20177;-77
2022/03/15 08:42:56;;;;;;;25.70;22.33;;;;;;;10.65;33.85;96187.03;5077567;28;20190;-77
2022/03/15 08:45:21;;;;;;;38.23;24.50;;;;;;;11.63;32.69;96193.53;5081318;28;20660;-78
2022/03/15 08:47:50;;;;;;;39.00;25.47;;;;;;;11.26;33.63;96181.69;5075352;28;20206;-77
2022/03/15 08:50:16;;;;;;;39.00;26.00;;;;;;;11.19;33.86;96181.50;5076786;28;20172;-81
2022/03/15 08:52:41;;;;;;;37.60;27.93;;;;;;;11.27;33.93;96175.50;5062002;28;20453;-77
2022/03/15 08:55:07;;;;;;;35.17;27.27;;;;;;;11.93;33.06;96178.19;5078057;28;20165;-77
2022/03/15 08:57:33;;;;;;;41.83;27.90;;;;;;;12.30;32.58;96175.84;5079421;28;20170;-76
2022/03/15 08:59:59;;;;;;;36.60;28.90;;;;;;;12.47;31.68;96170.59;5072570;28;20440;-77
2022/03/15 09:02:25;;;;;;;35.20;28.63;;;;;;;12.89;31.65;96170.28;5086332;28;20197;-75
2022/03/15 09:04:50;;;;;;;38.30;29.27;;;;;;;12.33;32.17;96173.88;5077533;28;20519;-77
2022/03/15 09:07:15;;;;;;;34.77;28.20;;;;;;;12.72;30.67;96167.88;5075731;28;20170;-78
2022/03/15 09:09:41;;;;;;;43.53;28.93;;;;;;;12.12;32.17;96167.34;5086687;28;20185;-79
2022/03/15 09:12:07;;;;;;;36.67;29.80;;;;;;;11.87;32.67;96164.72;5081964;28;20204;-79
2022/03/15 09:14:32;;;;;;;41.93;31.50;;;;;;;12.70;32.35;96160.97;5081889;28;20239;-78
2022/03/15 09:16:58;;;;;;;40.30;30.70;;;;;;;13.32;30.93;96154.16;5079384;28;20245;-76
2022/03/15 09:19:25;;;;;;;42.87;32.30;;;;;;;13.22;29.75;96158.78;5070102;28;20811;-79
2022/03/15 09:21:50;;;;;;;40.43;32.43;;;;;;;13.44;31.23;96151.94;5082105;28;20427;-79
2022/03/15 09:24:16;;;;;;;36.53;31.37;;;;;;;13.64;30.33;96153.13;5081391;28;20436;-78
2022/03/15 09:26:42;;;;;;;47.87;32.60;;;;;;;14.41;29.37;96141.56;5080079;28;20417;-79
2022/03/15 09:29:08;;;;;;;40.63;32.40;;;;;;;14.05;30.28;96144.06;5074793;28;20201;-78
2022/03/15 09:31:35;;;;;;;46.77;33.47;;;;;;;14.60;29.08;96142.88;5074833;28;20461;-78
2022/03/15 09:34:01;;;;;;;37.97;30.53;;;;;;;14.86;29.21;96138.97;5079381;28;20464;-78
2022/03/15 09:36:27;;;;;;;41.80;31.43;;;;;;;15.00;28.93;96135.47;5080960;28;20411;-78
2022/03/15 09:38:53;;;;;;;43.03;34.27;;;;;;;15.81;27.72;96134.50;5051545;28;20435;-78
2022/03/15 09:41:20;;;;;;;41.50;32.23;;;;;;;15.26;27.27;96122.78;5076980;28;20418;-77
2022/03/15 09:43:47;;;;;;;44.60;31.90;;;;;;;15.90;27.32;96124.66;5085409;28;20445;-79
2022/03/15 09:46:13;;;;;;;43.03;32.87;;;;;;;16.32;26.72;96128.22;5075940;28;20449;-82
2022/03/15 09:48:40;;;;;;;136.40;39.50;;;;;;;14.43;28.94;96125.59;5069756;28;20455;-80
2022/03/15 09:51:10;;;;;;;39.90;29.57;;;;;;;14.86;28.72;96115.25;5088361;28;20456;-78
2022/03/15 09:53:37;;;;;;;31.03;27.47;;;;;;;15.25;26.60;96118.50;5074747;28;20407;-78
2022/03/15 09:56:03;;;;;;;35.83;25.60;;;;;;;14.12;27.42;96113.41;5076958;28;20467;-78
2022/03/15 09:58:29;;;;;;;34.20;28.17;;;;;;;15.02;27.15;96114.19;5086702;28;20418;-78
2022/03/15 10:00:56;;;;;;;35.43;27.10;;;;;;;14.22;28.10;96108.69;5083444;28;20467;-78
2022/03/15 10:03:23;;;;;;;35.17;28.30;;;;;;;15.12;26.31;96108.63;5082494;28;20415;-78
2022/03/15 10:05:49;;;;;;;35.30;26.80;;;;;;;15.50;26.02;96103.97;5053642;28;20439;-78
2022/03/15 10:08:16;;;;;;;34.60;25.17;;;;;;;15.65;25.70;96098.63;5081721;28;20980;-79
2022/03/15 10:10:43;;;;;;;31.63;24.17;;;;;;;16.38;25.00;96088.59;5064711;28;20877;-78
2022/03/15 10:13:09;;;;;;;33.40;24.80;;;;;;;16.02;25.34;96094.06;5082719;28;20427;-77
2022/03/15 10:15:35;;;;;;;35.30;25.10;;;;;;;15.35;25.38;96088.19;5085001;28;20467;-78
2022/03/15 10:18:06;;;;;;;27.90;25.00;;;;;;;15.93;25.58;96082.81;5052039;28;20401;-78
2022/03/15 10:20:41;;;;;;;24.83;22.20;;;;;;;15.79;24.12;96079.25;5081466;28;20503;-78
2022/03/15 10:23:11;;;;;;;29.37;23.73;;;;;;;15.96;24.47;96081.63;5081210;28;20411;-78
2022/03/15 10:25:40;;;;;;;25.83;21.83;;;;;;;15.77;24.33;96076.00;5077356;28;20918;-78
2022/03/15 10:28:08;;;;;;;26.40;22.30;;;;;;;16.63;23.28;96068.81;5079268;28;20438;-78
2022/03/15 10:30:38;;;;;;;22.17;19.97;;;;;;;15.44;24.45;96062.47;5076570;28;21061;-78
2022/03/15 10:33:05;;;;;;;32.23;21.77;;;;;;;14.59;25.14;96059.59;5078478;28;20408;-78
2022/03/15 10:35:37;;;;;;;23.93;18.00;;;;;;;15.56;23.73;96050.44;5078030;28;20424;-78
2022/03/15 10:38:04;;;;;;;21.00;18.73;;;;;;;16.09;23.77;96055.31;5080993;28;20445;-78
2022/03/15 10:40:40;;;;;;;21.23;16.77;;;;;;;16.37;21.89;96041.22;5084294;28;20431;-78
2022/03/15 10:43:10;;;;;;;25.23;15.80;;;;;;;15.59;21.86;96041.31;5080169;28;20396;-78
2022/03/15 10:45:40;;;;;;;16.27;13.60;;;;;;;14.95;22.10;96026.31;5079701;28;20830;-78
2022/03/15 10:48:16;;;;;;;17.13;13.40;;;;;;;15.71;21.34;96029.22;5078965;28;20422;-78
2022/03/15 10:51:13;;;;;;;23.83;14.37;;;;;;;15.16;22.07;96025.53;5061221;28;20454;-78
2022/03/15 10:53:44;;;;;;;17.60;13.87;;;;;;;16.46;20.38;96013.63;5069857;28;20475;-78
2022/03/15 10:56:17;;;;;;;14.73;13.20;;;;;;;16.26;20.89;96020.66;5064240;28;20459;-79
2022/03/15 10:59:04;;;;;;;12.53;11.23;;;;;;;16.27;20.51;96017.81;5052666;28;20429;-79
2022/03/15 11:01:38;;;;;;;12.17;10.80;;;;;;;15.88;20.52;96018.38;5078943;28;20521;-78
2022/03/15 11:04:08;;;;;;;17.60;10.60;;;;;;;16.15;20.42;96014.09;5079959;28;20420;-78
2022/03/15 11:06:38;;;;;;;12.30;10.20;;;;;;;16.53;20.33;96011.84;5073470;28;20534;-78
2022/03/15 11:09:31;;;;;;;11.37;10.17;;;;;;;16.05;20.45;96006.53;5059849;28;20798;-78
2022/03/15 11:12:05;;;;;;;11.60;9.20;;;;;;;16.76;20.57;95995.63;5066050;28;20528;-78
2022/03/15 11:14:42;;;;;;;11.60;10.03;;;;;;;15.64;22.08;95991.41;5079042;28;20416;-78
2022/03/15 11:17:12;;;;;;;12.60;9.27;;;;;;;16.48;21.41;95989.66;5075406;28;20569;-78
2022/03/15 11:19:47;;;;;;;10.93;9.33;;;;;;;17.18;20.53;95975.19;5076874;28;20415;-79
2022/03/15 11:22:14;;;;;;;8.23;7.23;;;;;;;15.85;20.73;95971.28;5080099;28;20856;-78
2022/03/15 11:24:49;;;;;;;9.53;7.47;;;;;;;16.75;20.00;95975.53;5061587;28;20433;-78